Time;durP1;ratioP1;P1;durP2;ratioP2;P2;SDS_P1;SDS_P2;PMS_P1;PMS_P2;Temp;Humidity;BMP_temperature;BMP_pressure;BME280_temperature;BME280_humidity;BME280_pressure;Samples;Min_cycle;Max_cycle;Signal;HPM_P1;HPM_P2
2022/03/03 00:01:46;;;;;;;47.05;30.63;;;3.10;99.90;;;;;;5032906;28;20112;-54
2022/03/03 00:04:12;;;;;;;48.97;30.73;;;3.10;99.90;;;;;;5033696;28;20125;-55
2022/03/03 00:06:37;;;;;;;45.37;29.03;;;3.00;99.90;;;;;;5014846;28;20502;-54
2022/03/03 00:09:05;;;;;;;48.70;29.27;;;3.00;99.90;;;;;;5033077;28;20119;-51
2022/03/03 00:11:31;;;;;;;43.78;28.63;;;2.90;99.90;;;;;;5032724;28;20111;-54
2022/03/03 00:13:57;;;;;;;50.58;31.15;;;2.90;99.90;;;;;;5032563;28;20111;-53
2022/03/03 00:16:23;;;;;;;51.17;30.67;;;2.90;99.90;;;;;;5032365;28;20033;-55
2022/03/03 00:18:49;;;;;;;51.15;30.50;;;2.90;99.90;;;;;;5032703;28;20064;-51
2022/03/03 00:21:14;;;;;;;45.53;29.93;;;2.80;99.90;;;;;;5032524;28;20038;-50
2022/03/03 00:23:40;;;;;;;46.47;30.17;;;2.80;99.90;;;;;;5033001;28;20040;-51
2022/03/03 00:26:06;;;;;;;44.07;28.50;;;2.80;99.90;;;;;;5032860;28;20045;-50
2022/03/03 00:28:31;;;;;;;43.27;29.80;;;2.70;99.90;;;;;;5032591;28;20073;-50
2022/03/03 00:30:57;;;;;;;44.73;28.97;;;2.70;99.90;;;;;;5033031;28;20033;-50
2022/03/03 00:33:22;;;;;;;45.10;27.87;;;2.70;99.90;;;;;;5032790;28;20533;-50
2022/03/03 00:35:48;;;;;;;46.63;29.77;;;2.70;99.90;;;;;;5031704;28;20038;-50
2022/03/03 00:38:13;;;;;;;48.83;29.03;;;2.60;99.90;;;;;;5032839;28;20077;-49
2022/03/03 00:40:39;;;;;;;39.33;26.27;;;2.60;99.90;;;;;;5032356;28;20383;-51
2022/03/03 00:43:06;;;;;;;47.63;27.07;;;2.60;99.90;;;;;;5032525;28;20037;-50
2022/03/03 00:45:33;;;;;;;46.60;28.65;;;2.60;99.90;;;;;;5032042;28;20041;-51
2022/03/03 00:47:59;;;;;;;46.38;29.67;;;2.60;99.90;;;;;;5031973;28;20106;-51
2022/03/03 00:50:24;;;;;;;40.77;26.10;;;2.60;99.90;;;;;;5032197;28;20037;-49
2022/03/03 00:52:50;;;;;;;41.37;27.57;;;2.60;99.90;;;;;;5032489;28;20334;-50
2022/03/03 00:55:15;;;;;;;39.97;25.97;;;2.60;99.90;;;;;;5014100;28;20124;-50
2022/03/03 00:57:41;;;;;;;40.27;25.90;;;2.50;99.90;;;;;;5032479;28;20041;-50
2022/03/03 01:00:07;;;;;;;40.50;26.37;;;2.50;99.90;;;;;;5032025;28;20128;-50
2022/03/03 01:02:33;;;;;;;40.65;25.25;;;2.40;99.90;;;;;;5031437;28;20046;-50
2022/03/03 01:04:59;;;;;;;42.15;26.58;;;2.30;99.90;;;;;;5031866;28;20411;-50
2022/03/03 01:07:24;;;;;;;40.50;25.67;;;2.30;99.90;;;;;;5031647;28;20514;-50
2022/03/03 01:09:50;;;;;;;42.17;26.13;;;2.30;99.90;;;;;;5031969;28;20036;-49
2022/03/03 01:12:15;;;;;;;45.90;28.27;;;2.20;99.90;;;;;;5030946;28;20041;-50
2022/03/03 01:14:41;;;;;;;42.20;26.57;;;2.20;99.90;;;;;;5031569;28;20124;-49
2022/03/03 01:17:06;;;;;;;43.57;27.20;;;2.20;99.90;;;;;;5031253;28;20076;-50
2022/03/03 01:19:32;;;;;;;40.30;26.80;;;2.20;99.90;;;;;;5031891;28;20478;-49
2022/03/03 01:21:58;;;;;;;41.87;27.23;;;2.20;99.90;;;;;;5031372;28;20099;-51
2022/03/03 01:24:23;;;;;;;43.17;26.67;;;2.20;99.90;;;;;;5031691;28;20048;-50
2022/03/03 01:26:49;;;;;;;40.47;26.20;;;2.20;99.90;;;;;;5031259;28;20430;-50
2022/03/03 01:29:15;;;;;;;33.10;22.57;;;2.20;99.90;;;;;;5031580;28;20034;-49
2022/03/03 01:31:40;;;;;;;39.97;23.30;;;2.10;99.90;;;;;;5030856;28;20307;-50
2022/03/03 01:34:06;;;;;;;36.53;23.90;;;2.00;99.90;;;;;;5031306;28;20045;-50
2022/03/03 01:36:33;;;;;;;37.47;24.10;;;1.90;99.90;;;;;;5031228;28;20283;-49
2022/03/03 01:38:59;;;;;;;38.25;24.95;;;1.80;99.90;;;;;;5031288;28;20117;-49
2022/03/03 01:41:25;;;;;;;38.45;25.23;;;1.80;99.90;;;;;;5031102;28;20136;-50
2022/03/03 01:43:50;;;;;;;39.40;25.23;;;1.80;99.90;;;;;;5031193;28;20044;-50
2022/03/03 01:46:16;;;;;;;35.23;24.10;;;1.70;99.90;;;;;;5030307;28;20518;-51
2022/03/03 01:48:43;;;;;;;37.05;25.42;;;1.70;99.90;;;;;;5031160;28;20459;-51
2022/03/03 01:51:09;;;;;;;;;;;1.70;99.90;;;;;;5031447;28;20042;-50
2022/03/03 01:53:34;;;;;;;38.15;25.67;;;1.60;99.90;;;;;;5030868;28;19923;-52
2022/03/03 01:56:01;;;;;;;34.47;26.23;;;1.70;99.90;;;;;;5030293;28;20048;-49
2022/03/03 01:58:26;;;;;;;37.10;24.00;;;1.70;99.90;;;;;;5031269;28;20052;-49
2022/03/03 02:00:52;;;;;;;40.03;26.73;;;1.70;99.90;;;;;;5030986;28;20045;-49
2022/03/03 02:03:17;;;;;;;39.47;25.97;;;1.70;99.90;;;;;;5030972;28;20490;-49
2022/03/03 02:05:43;;;;;;;38.10;24.83;;;1.70;99.90;;;;;;5030944;28;20179;-53
2022/03/03 02:08:08;;;;;;;41.77;25.00;;;1.80;99.90;;;;;;5031129;28;20042;-49
2022/03/03 02:10:34;;;;;;;41.90;25.43;;;1.80;99.90;;;;;;5030654;28;20042;-49
2022/03/03 02:13:00;;;;;;;45.07;26.73;;;1.80;99.90;;;;;;5031052;28;20037;-51
2022/03/03 02:15:25;;;;;;;38.50;25.57;;;1.80;99.90;;;;;;5030891;28;20506;-54
2022/03/03 02:17:51;;;;;;;40.30;26.07;;;1.80;99.90;;;;;;5030966;28;20063;-49
2022/03/03 02:20:21;;;;;;;42.23;25.57;;;1.80;99.90;;;;;;5031010;28;20091;-49
2022/03/03 02:22:47;;;;;;;41.85;26.38;;;1.80;99.90;;;;;;5029924;28;20111;-51
2022/03/03 02:25:13;;;;;;;39.33;25.60;;;1.80;99.90;;;;;;5029997;28;20112;-50
2022/03/03 02:27:39;;;;;;;41.53;24.83;;;1.90;99.90;;;;;;5031010;28;20133;-51
2022/03/03 02:30:05;;;;;;;38.28;24.63;;;1.80;99.90;;;;;;5030573;28;20033;-50
2022/03/03 02:32:31;;;;;;;40.78;26.10;;;1.70;99.90;;;;;;5030420;28;20111;-49
2022/03/03 02:34:56;;;;;;;37.07;24.27;;;1.80;99.90;;;;;;5030054;28;20048;-49
2022/03/03 02:37:22;;;;;;;37.40;25.07;;;1.80;99.90;;;;;;5029979;28;20041;-50
2022/03/03 02:39:47;;;;;;;40.87;25.23;;;1.80;99.90;;;;;;5029625;28;20291;-49
2022/03/03 02:42:13;;;;;;;38.37;25.30;;;1.80;99.90;;;;;;5030125;28;20065;-49
2022/03/03 02:44:39;;;;;;;39.27;24.87;;;1.70;99.90;;;;;;5029924;28;20109;-50
2022/03/03 02:47:04;;;;;;;41.63;26.50;;;1.70;99.90;;;;;;5030682;28;20037;-52
2022/03/03 02:49:30;;;;;;;44.05;25.92;;;1.70;99.90;;;;;;5029995;28;20541;-49
2022/03/03 02:51:56;;;;;;;41.30;25.47;;;1.60;99.90;;;;;;5030120;28;20073;-49
2022/03/03 02:54:21;;;;;;;40.33;26.50;;;1.60;99.90;;;;;;5029523;28;20041;-50
2022/03/03 02:59:31;;;;;;;39.33;26.55;;;1.50;99.90;;;;;;5029979;28;20128;-52
2022/03/03 03:01:57;;;;;;;35.90;25.93;;;1.50;99.90;;;;;;5029727;28;20117;-49
2022/03/03 03:04:22;;;;;;;37.73;25.53;;;1.50;99.90;;;;;;5029960;28;20037;-49
2022/03/03 03:06:48;;;;;;;37.93;25.27;;;1.40;99.90;;;;;;5029692;28;20045;-49
2022/03/03 03:09:14;;;;;;;33.97;21.83;;;1.40;99.90;;;;;;5030111;28;20033;-49
2022/03/03 03:11:40;;;;;;;35.10;23.02;;;1.30;99.90;;;;;;5029724;28;20037;-51
2022/03/03 03:14:06;;;;;;;39.20;25.23;;;1.30;99.90;;;;;;5030001;28;20422;-51
2022/03/03 03:16:31;;;;;;;43.10;26.27;;;1.30;99.90;;;;;;5029420;28;20490;-50
2022/03/03 03:18:57;;;;;;;41.40;25.20;;;1.20;99.90;;;;;;5029881;28;20041;-50
2022/03/03 03:21:23;;;;;;;39.13;25.23;;;1.30;99.90;;;;;;5028030;28;20486;-52
2022/03/03 03:23:48;;;;;;;38.73;24.80;;;1.30;99.90;;;;;;5029076;28;20053;-49
2022/03/03 03:26:14;;;;;;;37.27;24.60;;;1.30;99.90;;;;;;5029508;28;20057;-49
2022/03/03 03:28:39;;;;;;;36.10;24.07;;;1.20;99.90;;;;;;5029842;28;20045;-50
2022/03/03 03:31:05;;;;;;;34.73;24.40;;;1.10;99.90;;;;;;5029371;28;20073;-51
2022/03/03 03:33:30;;;;;;;42.20;26.70;;;1.20;99.90;;;;;;5029651;28;20076;-50
2022/03/03 03:35:56;;;;;;;45.13;24.70;;;1.10;99.90;;;;;;5032229;28;20060;-49
2022/03/03 03:38:22;;;;;;;35.43;24.90;;;1.10;99.90;;;;;;5033595;28;20478;-50
2022/03/03 03:40:47;;;;;;;44.30;25.87;;;1.10;99.90;;;;;;5033561;28;20495;-49
2022/03/03 03:43:13;;;;;;;35.93;24.67;;;1.10;99.90;;;;;;5033636;28;20034;-50
2022/03/03 03:45:38;;;;;;;34.63;24.00;;;1.10;99.90;;;;;;5033187;28;20033;-50
2022/03/03 03:48:04;;;;;;;36.33;24.57;;;1.20;99.90;;;;;;5033284;28;20080;-51
2022/03/03 03:50:30;;;;;;;35.73;24.73;;;1.10;99.90;;;;;;5033032;28;20045;-49
2022/03/03 03:52:55;;;;;;;43.83;26.00;;;1.10;99.90;;;;;;5033279;28;20275;-51
2022/03/03 03:55:23;;;;;;;38.27;24.87;;;1.20;99.90;;;;;;5033206;28;20064;-53
2022/03/03 03:57:48;;;;;;;38.40;24.95;;;1.10;99.90;;;;;;5033235;28;20056;-50
2022/03/03 04:00:15;;;;;;;39.10;24.63;;;1.10;99.90;;;;;;5033215;28;20057;-51
2022/03/03 04:02:41;;;;;;;;;;;1.10;99.90;;;;;;5033298;28;20124;-50
2022/03/03 04:05:07;;;;;;;43.42;26.35;;;1.10;99.90;;;;;;5032446;28;19917;-50
2022/03/03 04:07:32;;;;;;;43.25;27.13;;;1.10;99.90;;;;;;5015318;28;20041;-51
2022/03/03 04:09:58;;;;;;;39.07;26.33;;;1.10;99.90;;;;;;5033029;28;20041;-49
2022/03/03 04:12:23;;;;;;;42.20;26.83;;;1.10;99.90;;;;;;5033031;28;20038;-52
2022/03/03 04:14:49;;;;;;;43.33;26.73;;;1.10;99.90;;;;;;5032615;28;20037;-49
2022/03/03 04:17:15;;;;;;;43.07;28.07;;;1.10;99.90;;;;;;5032988;28;20507;-50
2022/03/03 04:19:40;;;;;;;43.97;27.33;;;1.00;99.90;;;;;;5032413;28;20037;-49
2022/03/03 04:22:06;;;;;;;39.27;26.80;;;1.00;99.90;;;;;;5015227;28;20054;-52
2022/03/03 04:24:31;;;;;;;40.83;27.30;;;1.00;99.90;;;;;;5032729;28;20037;-53
2022/03/03 04:26:57;;;;;;;34.30;23.90;;;1.00;99.90;;;;;;5033107;28;20044;-52
2022/03/03 04:29:23;;;;;;;44.87;25.80;;;1.00;99.90;;;;;;5032624;28;20040;-50
2022/03/03 04:31:51;;;;;;;43.50;26.42;;;1.00;99.90;;;;;;5032655;28;20295;-49
2022/03/03 04:34:17;;;;;;;39.28;25.40;;;1.00;99.90;;;;;;5032043;28;20037;-52
2022/03/03 04:36:42;;;;;;;41.50;27.43;;;1.00;99.90;;;;;;5032413;28;20406;-50
2022/03/03 04:39:08;;;;;;;39.90;25.03;;;1.00;99.90;;;;;;5032592;28;20041;-51
2022/03/03 04:41:33;;;;;;;43.03;26.77;;;1.00;99.90;;;;;;5032157;28;20135;-51
2022/03/03 04:43:59;;;;;;;40.80;27.73;;;1.00;99.90;;;;;;5032351;28;20039;-49
2022/03/03 04:46:24;;;;;;;34.87;24.70;;;1.00;99.90;;;;;;5031001;28;20124;-51
2022/03/03 04:48:50;;;;;;;39.23;25.43;;;1.00;99.90;;;;;;5031901;28;20120;-51
2022/03/03 04:51:15;;;;;;;38.77;24.77;;;1.00;99.90;;;;;;5031934;28;20045;-52
2022/03/03 04:53:41;;;;;;;34.33;24.10;;;1.00;99.90;;;;;;5032416;28;20041;-51
2022/03/03 04:56:07;;;;;;;39.97;25.87;;;1.00;99.90;;;;;;5031868;28;20044;-50
2022/03/03 04:58:33;;;;;;;37.10;25.27;;;1.00;99.90;;;;;;5032172;28;20048;-51
2022/03/03 05:00:58;;;;;;;36.55;24.40;;;0.90;99.90;;;;;;5014196;28;20116;-49
2022/03/03 05:03:24;;;;;;;34.17;23.37;;;1.00;99.90;;;;;;5031725;28;20132;-49
2022/03/03 05:05:49;;;;;;;38.20;23.53;;;1.00;99.90;;;;;;5031808;28;20034;-49
2022/03/03 05:08:15;;;;;;;36.03;25.20;;;1.00;99.90;;;;;;5032279;28;20048;-50
2022/03/03 05:10:40;;;;;;;35.43;24.33;;;1.00;99.90;;;;;;5031952;28;20044;-50
2022/03/03 05:13:06;;;;;;;33.93;23.77;;;1.00;99.90;;;;;;5031947;28;20056;-51
2022/03/03 05:15:31;;;;;;;36.13;24.83;;;1.00;99.90;;;;;;5031464;28;20073;-49
2022/03/03 05:17:58;;;;;;;37.70;23.83;;;1.00;99.90;;;;;;5031491;28;20457;-49
2022/03/03 05:20:24;;;;;;;;;;;1.00;99.90;;;;;;5032573;28;20069;-50
2022/03/03 05:22:49;;;;;;;36.42;22.90;;;1.00;99.90;;;;;;5031660;28;19921;-54
2022/03/03 05:25:15;;;;;;;37.23;24.07;;;1.00;99.90;;;;;;5031502;28;20502;-50
2022/03/03 05:27:41;;;;;;;39.13;24.60;;;1.00;99.90;;;;;;5031567;28;20491;-49
2022/03/03 05:30:09;;;;;;;32.13;23.53;;;0.90;99.90;;;;;;5014065;28;20261;-52
2022/03/03 05:32:36;;;;;;;35.85;22.77;;;0.90;99.90;;;;;;5031063;28;20103;-51
2022/03/03 05:35:02;;;;;;;37.85;24.20;;;0.90;99.90;;;;;;5031558;28;20034;-49
2022/03/03 05:37:27;;;;;;;36.05;24.08;;;0.90;99.90;;;;;;5031552;28;20053;-51
2022/03/03 05:39:53;;;;;;;40.63;25.07;;;0.80;99.90;;;;;;5031507;28;20518;-55
2022/03/03 05:42:20;;;;;;;37.47;25.52;;;0.80;99.90;;;;;;5031100;28;20513;-51
2022/03/03 05:44:50;;;;;;;31.55;23.52;;;0.70;99.90;;;;;;5031096;28;20131;-55
2022/03/03 05:47:17;;;;;;;37.45;23.63;;;0.70;99.90;;;;;;5030764;28;20037;-52
2022/03/03 05:49:50;;;;;;;39.05;25.95;;;0.70;99.90;;;;;;5013405;28;20038;-51
2022/03/03 05:52:16;;;;;;;32.30;22.77;;;0.60;99.90;;;;;;5031131;28;20045;-50
2022/03/03 05:54:42;;;;;;;29.02;21.73;;;0.60;99.90;;;;;;5030855;28;20556;-52
2022/03/03 05:57:17;;;;;;;38.55;24.75;;;0.60;99.90;;;;;;5030832;28;20045;-51
2022/03/03 05:59:43;;;;;;;38.30;24.77;;;0.60;99.90;;;;;;5030856;28;20057;-50
2022/03/03 06:02:09;;;;;;;;;;;0.60;99.90;;;;;;5031459;28;20045;-54
2022/03/03 06:04:38;;;;;;;34.55;23.48;;;0.60;99.90;;;;;;5013400;28;19924;-49
2022/03/03 06:07:07;;;;;;;33.58;22.88;;;0.60;99.90;;;;;;5031105;28;20049;-51
2022/03/03 06:09:35;;;;;;;38.70;24.33;;;0.60;99.90;;;;;;5031237;28;20071;-50
2022/03/03 06:12:03;;;;;;;34.47;23.85;;;0.60;99.90;;;;;;5031032;28;20041;-53
2022/03/03 06:14:43;;;;;;;37.33;24.25;;;0.60;99.90;;;;;;5030172;28;20080;-50
2022/03/03 06:17:09;;;;;;;37.28;23.88;;;0.60;99.90;;;;;;5030503;28;20052;-50
2022/03/03 06:19:41;;;;;;;37.30;24.58;;;0.70;99.90;;;;;;5011245;28;20042;-51
2022/03/03 06:22:07;;;;;;;31.30;21.98;;;0.60;99.90;;;;;;5017587;28;20449;-54
2022/03/03 06:24:33;;;;;;;;;;;0.60;99.90;;;;;;5030574;28;20033;-52
2022/03/03 06:27:00;;;;;;;40.17;23.30;;;0.60;99.90;;;;;;5030716;28;20501;-50
2022/03/03 06:29:25;;;;;;;30.17;21.90;;;0.60;99.90;;;;;;5030096;28;20494;-49
2022/03/03 06:31:51;;;;;;;33.27;23.60;;;0.50;99.90;;;;;;5030275;28;20044;-51
2022/03/03 06:34:16;;;;;;;46.13;41.27;;;0.60;99.90;;;;;;5029698;28;20537;-52
2022/03/03 06:36:42;;;;;;;43.80;39.30;;;0.60;99.90;;;;;;5019216;28;20037;-53
2022/03/03 06:39:07;;;;;;;34.53;30.03;;;0.80;99.90;;;;;;4993086;28;20038;-50
2022/03/03 06:41:33;;;;;;;34.50;30.93;;;0.80;99.90;;;;;;5024053;28;20253;-51
2022/03/03 06:43:59;;;;;;;34.53;25.83;;;1.00;99.90;;;;;;5029616;28;20037;-50
2022/03/03 06:46:24;;;;;;;32.70;22.93;;;1.10;99.90;;;;;;5029839;28;20452;-50
2022/03/03 06:48:50;;;;;;;26.80;20.33;;;1.20;99.90;;;;;;5030013;28;20037;-50
2022/03/03 06:51:17;;;;;;;29.40;22.33;;;1.30;99.90;;;;;;5029324;28;20657;-51
2022/03/03 06:53:45;;;;;;;29.63;22.63;;;1.50;99.90;;;;;;5012381;28;20053;-50
2022/03/03 06:56:14;;;;;;;30.08;21.63;;;1.60;99.90;;;;;;5041691;28;20033;-51
2022/03/03 06:58:40;;;;;;;28.10;20.25;;;1.70;99.90;;;;;;5030189;28;20115;-50
2022/03/03 07:01:11;;;;;;;28.80;21.52;;;1.90;99.90;;;;;;5029616;28;20190;-50
2022/03/03 07:03:38;;;;;;;29.80;22.13;;;2.00;99.90;;;;;;5029179;28;20076;-50
2022/03/03 07:06:04;;;;;;;30.55;19.52;;;2.10;99.90;;;;;;5029649;28;20167;-52
2022/03/03 07:08:32;;;;;;;26.65;21.50;;;2.30;99.90;;;;;;5012653;28;20518;-50
2022/03/03 07:10:58;;;;;;;31.20;21.58;;;2.40;99.90;;;;;;5036039;28;20116;-53
2022/03/03 07:13:24;;;;;;;29.52;22.13;;;2.60;99.90;;;;;;5036862;28;20056;-52
2022/03/03 07:15:55;;;;;;;32.60;22.17;;;2.90;99.90;;;;;;5035045;28;20445;-50
2022/03/03 07:18:49;;;;;;;27.80;20.27;;;3.10;99.90;;;;;;5036714;28;20034;-50
2022/03/03 07:21:25;;;;;;;27.13;19.55;;;3.60;99.90;;;;;;5033160;28;20053;-51
2022/03/03 07:24:07;;;;;;;27.95;21.73;;;4.00;99.90;;;;;;5036800;28;20037;-50
2022/03/03 07:26:33;;;;;;;28.95;21.38;;;4.40;99.60;;;;;;5036190;28;20044;-52
2022/03/03 07:29:01;;;;;;;30.27;20.08;;;4.60;98.50;;;;;;5036470;28;20395;-50
2022/03/03 07:31:31;;;;;;;28.13;22.27;;;4.60;97.70;;;;;;5035679;28;20049;-52
2022/03/03 07:34:00;;;;;;;40.22;23.55;;;4.50;97.20;;;;;;5036423;28;20029;-54
2022/03/03 07:36:28;;;;;;;29.08;21.00;;;4.30;97.50;;;;;;5036114;28;20049;-51
2022/03/03 07:38:59;;;;;;;27.67;21.13;;;4.30;97.40;;;;;;5036121;28;20041;-53
2022/03/03 07:41:27;;;;;;;31.50;22.10;;;4.20;97.50;;;;;;5035622;28;20080;-51
2022/03/03 07:43:54;;;;;;;29.65;21.88;;;4.30;97.90;;;;;;5035361;28;20063;-55
2022/03/03 07:46:21;;;;;;;29.95;22.00;;;4.20;97.70;;;;;;5035933;28;20069;-50
2022/03/03 07:48:47;;;;;;;32.35;21.83;;;4.20;97.90;;;;;;5036059;28;20552;-54
2022/03/03 07:51:13;;;;;;;33.13;22.30;;;4.10;97.70;;;;;;5036608;28;20030;-50
2022/03/03 07:53:39;;;;;;;30.30;22.70;;;4.10;97.70;;;;;;5035857;28;20554;-50
2022/03/03 07:56:05;;;;;;;28.13;21.52;;;4.10;97.80;;;;;;5036333;28;20081;-50
2022/03/03 07:58:44;;;;;;;33.45;23.08;;;4.10;98.20;;;;;;5034974;28;20490;-52
2022/03/03 08:01:14;;;;;;;31.45;21.63;;;4.10;98.00;;;;;;5034765;28;20048;-50
2022/03/03 08:03:44;;;;;;;33.42;23.33;;;4.10;98.20;;;;;;5035089;28;20594;-50
2022/03/03 08:06:13;;;;;;;34.33;21.95;;;4.20;97.70;;;;;;5013603;28;20068;-53
2022/03/03 08:08:39;;;;;;;30.60;22.73;;;4.20;97.60;;;;;;5035924;28;20029;-54
2022/03/03 08:11:07;;;;;;;30.27;21.63;;;4.20;97.70;;;;;;5033331;28;20486;-54
2022/03/03 08:13:33;;;;;;;28.75;21.92;;;4.20;97.40;;;;;;5034655;28;20037;-50
2022/03/03 08:15:59;;;;;;;29.83;21.95;;;4.20;97.60;;;;;;5033484;28;20098;-50
2022/03/03 08:18:31;;;;;;;30.40;21.98;;;4.10;97.80;;;;;;5034419;28;20077;-50
2022/03/03 08:21:01;;;;;;;32.00;22.27;;;4.10;98.10;;;;;;5033912;28;20056;-51
2022/03/03 08:23:27;;;;;;;30.10;20.48;;;4.20;98.50;;;;;;5014244;28;20396;-55
2022/03/03 08:25:54;;;;;;;;;;;4.20;98.80;;;;;;5013404;28;20034;-55
2022/03/03 08:28:23;;;;;;;32.17;21.77;;;4.30;99.50;;;;;;5012937;28;19921;-52
2022/03/03 08:30:55;;;;;;;36.25;22.30;;;4.50;99.30;;;;;;5012745;28;20049;-52
2022/03/03 08:33:35;;;;;;;30.35;21.10;;;4.60;99.60;;;;;;5012817;28;20046;-54
2022/03/03 08:36:02;;;;;;;32.97;21.95;;;4.70;98.70;;;;;;4994514;28;20454;-56
2022/03/03 08:38:30;;;;;;;27.95;20.73;;;4.70;97.70;;;;;;4995394;28;20100;-56
2022/03/03 08:40:59;;;;;;;34.22;22.95;;;4.70;97.70;;;;;;5012609;28;20126;-54
2022/03/03 08:43:28;;;;;;;37.70;23.40;;;4.80;98.40;;;;;;5012830;28;20041;-51
2022/03/03 08:45:56;;;;;;;27.55;20.52;;;4.80;98.00;;;;;;5012204;28;20030;-54
2022/03/03 08:48:25;;;;;;;28.63;19.52;;;4.80;97.70;;;;;;5027009;28;20117;-55
2022/03/03 08:50:51;;;;;;;30.77;21.13;;;4.90;97.70;;;;;;5026371;28;20414;-55
2022/03/03 08:53:17;;;;;;;32.45;22.15;;;4.90;97.70;;;;;;5032131;28;20553;-51
2022/03/03 08:55:42;;;;;;;27.57;19.73;;;5.00;97.60;;;;;;5014340;28;20041;-56
2022/03/03 08:58:10;;;;;;;26.53;19.93;;;5.10;97.50;;;;;;5032385;28;20041;-57
2022/03/03 09:00:36;;;;;;;28.83;19.83;;;5.20;97.70;;;;;;5032026;28;20049;-53
2022/03/03 09:03:02;;;;;;;33.55;20.52;;;5.30;97.40;;;;;;5031144;28;20075;-56
2022/03/03 09:05:28;;;;;;;24.20;19.73;;;5.40;96.70;;;;;;5031635;28;20159;-53
2022/03/03 09:07:54;;;;;;;27.80;20.15;;;5.40;96.30;;;;;;5031746;28;20518;-53
2022/03/03 09:10:20;;;;;;;27.57;21.33;;;5.50;96.00;;;;;;5031416;28;20039;-56
2022/03/03 09:12:45;;;;;;;27.52;21.08;;;5.50;96.30;;;;;;5031124;28;20434;-54
2022/03/03 09:15:11;;;;;;;27.13;21.03;;;5.50;96.10;;;;;;5031732;28;20037;-55
2022/03/03 09:17:38;;;;;;;38.90;22.77;;;5.60;96.00;;;;;;5030781;28;20037;-51
2022/03/03 09:20:07;;;;;;;31.70;20.75;;;5.70;95.90;;;;;;5004538;28;20109;-49
2022/03/03 09:22:33;;;;;;;28.15;19.60;;;5.80;95.70;;;;;;5029820;28;20037;-55
2022/03/03 09:24:58;;;;;;;32.67;20.85;;;5.90;95.60;;;;;;5031420;28;20041;-53
2022/03/03 09:27:24;;;;;;;30.30;19.67;;;6.00;95.60;;;;;;5031975;28;20446;-54
2022/03/03 09:29:51;;;;;;;30.48;21.17;;;6.00;95.20;;;;;;5030456;28;20514;-51
2022/03/03 09:32:17;;;;;;;27.65;21.13;;;6.10;94.90;;;;;;5028477;28;20379;-55
2022/03/03 09:34:45;;;;;;;29.30;21.25;;;6.20;95.10;;;;;;5030775;28;20533;-53
2022/03/03 09:37:14;;;;;;;25.42;20.08;;;6.30;94.90;;;;;;5031201;28;20037;-53
2022/03/03 09:39:39;;;;;;;25.15;19.20;;;6.40;94.30;;;;;;5031299;28;20030;-55
2022/03/03 09:42:05;;;;;;;30.90;22.30;;;6.50;93.80;;;;;;5030416;28;20449;-50
2022/03/03 09:44:31;;;;;;;31.15;19.90;;;6.60;95.10;;;;;;5029175;28;20120;-53
2022/03/03 09:46:56;;;;;;;27.47;20.60;;;6.70;95.00;;;;;;5028487;28;20041;-51
2022/03/03 09:49:23;;;;;;;29.38;20.85;;;6.80;93.00;;;;;;5029976;28;20095;-52
2022/03/03 09:51:50;;;;;;;26.15;20.65;;;6.80;91.70;;;;;;5030102;28;20039;-49
2022/03/03 09:54:16;;;;;;;27.45;19.10;;;6.80;92.70;;;;;;5030553;28;20045;-54
2022/03/03 09:56:41;;;;;;;25.80;19.80;;;6.90;91.80;;;;;;5030406;28;20033;-50
2022/03/03 09:59:07;;;;;;;29.13;20.77;;;6.90;92.40;;;;;;5030471;28;20037;-50
2022/03/03 10:01:33;;;;;;;28.00;19.77;;;7.00;91.20;;;;;;5030809;28;20304;-50
2022/03/03 10:04:21;;;;;;;28.50;20.05;;;7.10;90.90;;;;;;5030572;28;20666;-53
2022/03/03 10:06:48;;;;;;;26.27;20.77;;;7.10;90.30;;;;;;5030430;28;20394;-50
2022/03/03 10:09:16;;;;;;;26.40;19.27;;;7.20;90.60;;;;;;5013444;28;20429;-50
2022/03/03 10:11:47;;;;;;;25.15;18.90;;;7.30;90.20;;;;;;5030271;28;20410;-48
2022/03/03 10:14:13;;;;;;;24.98;18.67;;;7.30;90.10;;;;;;5030159;28;20044;-52
2022/03/03 10:16:47;;;;;;;26.25;18.48;;;7.40;89.50;;;;;;5030387;28;20413;-49
2022/03/03 10:19:13;;;;;;;25.17;17.85;;;7.50;87.30;;;;;;5012779;28;20095;-50
2022/03/03 10:21:41;;;;;;;24.67;18.67;;;7.50;87.10;;;;;;5030550;28;20402;-48
2022/03/03 10:24:25;;;;;;;25.83;18.13;;;7.50;86.00;;;;;;5012479;28;20041;-48
2022/03/03 10:27:06;;;;;;;25.60;17.80;;;7.60;85.20;;;;;;5030435;28;20076;-50
2022/03/03 10:29:32;;;;;;;23.23;18.52;;;7.70;85.00;;;;;;5028086;28;20025;-48
2022/03/03 10:31:59;;;;;;;25.38;18.83;;;7.80;84.70;;;;;;5030142;28;20120;-50
2022/03/03 10:34:32;;;;;;;;;;;7.90;85.10;;;;;;5030519;28;20037;-48
2022/03/03 10:37:06;;;;;;;22.88;17.52;;;7.90;82.70;;;;;;5029708;28;19921;-48
2022/03/03 10:39:47;;;;;;;20.73;15.75;;;8.00;83.70;;;;;;5030166;28;20469;-48
2022/03/03 10:42:19;;;;;;;22.13;17.20;;;8.10;81.90;;;;;;5012566;28;20124;-49
2022/03/03 10:44:45;;;;;;;23.45;16.15;;;8.10;82.50;;;;;;5022706;28;20116;-48
2022/03/03 10:47:13;;;;;;;;;;;8.20;80.30;;;;;;5028201;28;20029;-49
2022/03/03 10:49:42;;;;;;;28.77;19.13;;;8.30;80.60;;;;;;5029292;28;20336;-54
2022/03/03 10:52:23;;;;;;;22.15;18.63;;;8.30;81.30;;;;;;5030184;28;20140;-50
2022/03/03 10:54:58;;;;;;;20.00;17.00;;;8.40;82.40;;;;;;5011799;28;20051;-50
2022/03/03 10:57:43;;;;;;;20.35;16.70;;;8.50;82.60;;;;;;5029452;28;20112;-50
2022/03/03 11:00:14;;;;;;;20.33;14.88;;;8.60;80.60;;;;;;5030093;28;20045;-48
2022/03/03 11:02:49;;;;;;;26.98;16.05;;;8.70;76.90;;;;;;5029589;28;20037;-48
2022/03/03 11:05:16;;;;;;;19.73;15.40;;;8.70;76.90;;;;;;5029828;28;20415;-48
2022/03/03 11:07:44;;;;;;;21.05;16.00;;;8.80;76.00;;;;;;5028742;28;20037;-48
2022/03/03 11:10:15;;;;;;;20.83;15.73;;;8.80;76.40;;;;;;5029280;28;20467;-48
2022/03/03 11:12:43;;;;;;;20.83;16.45;;;8.80;77.30;;;;;;5027445;28;20394;-49
2022/03/03 11:15:10;;;;;;;23.85;18.05;;;9.00;78.50;;;;;;5020253;28;20495;-49
2022/03/03 11:17:36;;;;;;;19.63;16.52;;;9.00;78.70;;;;;;5029210;28;20037;-49
2022/03/03 11:20:04;;;;;;;21.75;16.52;;;9.10;77.10;;;;;;5029684;28;20116;-49
2022/03/03 11:22:33;;;;;;;21.95;16.42;;;9.20;77.80;;;;;;5029553;28;20041;-50
2022/03/03 11:25:02;;;;;;;20.20;15.77;;;9.30;79.20;;;;;;5029212;28;20495;-49
2022/03/03 11:27:36;;;;;;;20.38;14.75;;;9.30;77.40;;;;;;5029665;28;20049;-50
2022/03/03 11:30:30;;;;;;;19.15;15.95;;;9.40;75.10;;;;;;5029502;28;20030;-48
2022/03/03 11:33:32;;;;;;;17.80;13.20;;;9.40;75.40;;;;;;5029529;28;20080;-48
2022/03/03 11:36:01;;;;;;;18.73;13.30;;;9.50;74.20;;;;;;5011598;28;20553;-48
2022/03/03 11:38:54;;;;;;;19.70;14.25;;;9.60;71.50;;;;;;5032627;28;20056;-52
2022/03/03 11:41:23;;;;;;;18.77;14.45;;;9.60;73.20;;;;;;5024206;28;20060;-51
2022/03/03 11:44:03;;;;;;;19.27;14.70;;;9.70;73.70;;;;;;5029999;28;20038;-49
2022/03/03 11:46:51;;;;;;;25.67;13.65;;;9.80;73.00;;;;;;5011303;28;20499;-53
2022/03/03 11:49:24;;;;;;;15.15;13.18;;;9.90;71.80;;;;;;5029718;28;20073;-50
2022/03/03 11:51:54;;;;;;;14.82;12.52;;;10.00;71.00;;;;;;5027748;28;20034;-50
2022/03/03 11:54:30;;;;;;;18.42;13.05;;;10.10;72.10;;;;;;5029480;28;20051;-49
2022/03/03 11:57:06;;;;;;;20.58;13.40;;;10.20;71.70;;;;;;5032241;28;20195;-50
2022/03/03 11:59:40;;;;;;;14.83;13.30;;;10.20;71.70;;;;;;5027980;28;20128;-49
2022/03/03 12:02:06;;;;;;;19.60;15.50;;;10.10;71.00;;;;;;5032499;28;20042;-52
2022/03/03 12:04:32;;;;;;;13.68;11.32;;;10.10;71.60;;;;;;5032480;28;20041;-50
2022/03/03 12:06:58;;;;;;;13.88;12.10;;;10.20;73.20;;;;;;5033092;28;20041;-47
2022/03/03 12:09:30;;;;;;;18.23;12.45;;;10.30;72.50;;;;;;5015477;28;20502;-48
2022/03/03 12:12:16;;;;;;;15.10;12.38;;;10.30;72.20;;;;;;5014457;28;20047;-49
2022/03/03 12:14:59;;;;;;;13.90;12.02;;;10.30;70.40;;;;;;5012650;28;20092;-49
2022/03/03 12:17:56;;;;;;;14.38;12.10;;;10.40;70.50;;;;;;5026978;28;20103;-48
2022/03/03 12:20:32;;;;;;;15.45;13.25;;;10.50;70.30;;;;;;5015346;28;20037;-49
2022/03/03 12:23:12;;;;;;;16.40;13.40;;;10.50;69.50;;;;;;5014203;28;20050;-48
2022/03/03 12:25:50;;;;;;;18.90;14.90;;;10.50;72.20;;;;;;5025863;28;20029;-54
2022/03/03 12:28:16;;;;;;;14.65;12.55;;;10.50;70.70;;;;;;5032842;28;20132;-52
2022/03/03 12:30:44;;;;;;;15.40;11.98;;;10.50;69.40;;;;;;5032415;28;20510;-48
2022/03/03 12:33:26;;;;;;;25.73;12.82;;;10.60;70.20;;;;;;5032431;28;20340;-52
2022/03/03 12:35:59;;;;;;;15.55;11.65;;;10.60;67.90;;;;;;5032251;28;20045;-50
2022/03/03 12:38:25;;;;;;;17.55;13.02;;;10.60;69.00;;;;;;5032760;28;20055;-53
2022/03/03 12:40:51;;;;;;;;;;;10.70;70.80;;;;;;5032759;28;20533;-48
2022/03/03 12:43:18;;;;;;;13.65;11.75;;;10.70;67.80;;;;;;5032407;28;19921;-48
2022/03/03 12:45:45;;;;;;;17.30;13.48;;;10.70;68.50;;;;;;5031585;28;20037;-52